Time;durP1;ratioP1;P1;durP2;ratioP2;P2;SDS_P1;SDS_P2;PMS_P1;PMS_P2;Temp;Humidity;BMP_temperature;BMP_pressure;BME280_temperature;BME280_humidity;BME280_pressure;Samples;Min_cycle;Max_cycle;Signal;HPM_P1;HPM_P2
2022/03/12 00:01:08;;;;;;;16.75;8.55;;;;;;;;;;4937821;28;20558;-79
2022/03/12 00:03:35;;;;;;;20.42;9.88;;;;;;;;;;4968100;28;20043;-79
2022/03/12 00:06:02;;;;;;;18.77;9.43;;;;;;;;;;4936699;28;20047;-78
2022/03/12 00:08:46;;;;;;;20.40;9.98;;;;;;;;;;4936692;28;20035;-78
2022/03/12 00:11:17;;;;;;;17.38;8.75;;;;;;;;;;4965887;28;20044;-79
2022/03/12 00:13:43;;;;;;;21.67;8.95;;;;;;;;;;4965810;28;20049;-78
2022/03/12 00:16:13;;;;;;;21.88;10.18;;;;;;;;;;4962903;28;20171;-78
2022/03/12 00:18:41;;;;;;;16.90;8.95;;;;;;;;;;4965392;28;20047;-78
2022/03/12 00:21:11;;;;;;;20.30;10.15;;;;;;;;;;4965907;28;20077;-78
2022/03/12 00:23:37;;;;;;;18.88;9.20;;;;;;;;;;4947403;28;20042;-78
2022/03/12 00:26:03;;;;;;;22.55;8.93;;;;;;;;;;4952080;28;20400;-78
2022/03/12 00:28:29;;;;;;;20.67;9.50;;;;;;;;;;4964822;28;20035;-78
2022/03/12 00:30:55;;;;;;;19.70;9.65;;;;;;;;;;4962995;28;20109;-78
2022/03/12 00:33:22;;;;;;;18.00;9.57;;;;;;;;;;4964634;28;20039;-78
2022/03/12 00:35:49;;;;;;;21.83;9.93;;;;;;;;;;4965648;28;20122;-78
2022/03/12 00:38:16;;;;;;;19.40;8.90;;;;;;;;;;4962805;28;20043;-78
2022/03/12 00:40:42;;;;;;;18.52;9.20;;;;;;;;;;4965092;28;20038;-78
2022/03/12 00:43:09;;;;;;;18.80;9.43;;;;;;;;;;4965162;28;20285;-78
2022/03/12 00:45:34;;;;;;;18.90;10.52;;;;;;;;;;4938204;28;20524;-78
2022/03/12 00:48:00;;;;;;;22.42;9.75;;;;;;;;;;4958040;28;20134;-79
2022/03/12 00:50:26;;;;;;;19.60;9.73;;;;;;;;;;4973024;28;20511;-78
2022/03/12 00:52:51;;;;;;;17.27;9.10;;;;;;;;;;4948843;28;20121;-78
2022/03/12 00:55:17;;;;;;;18.90;8.88;;;;;;;;;;4951147;28;20139;-79
2022/03/12 00:57:43;;;;;;;22.77;9.80;;;;;;;;;;4935206;28;20055;-79
2022/03/12 01:00:18;;;;;;;19.65;9.82;;;;;;;;;;4951679;28;20153;-79
2022/03/12 01:02:44;;;;;;;20.17;10.05;;;;;;;;;;4946629;28;20042;-78
2022/03/12 01:05:10;;;;;;;15.25;8.80;;;;;;;;;;4953272;28;20036;-79
2022/03/12 01:07:36;;;;;;;20.30;9.43;;;;;;;;;;4961740;28;20042;-79
2022/03/12 01:10:03;;;;;;;20.35;9.63;;;;;;;;;;4947863;28;20133;-78
2022/03/12 01:12:29;;;;;;;21.77;9.73;;;;;;;;;;4955487;28;20039;-79
2022/03/12 01:14:54;;;;;;;22.25;9.65;;;;;;;;;;4949260;28;20055;-79
2022/03/12 01:17:21;;;;;;;18.02;10.35;;;;;;;;;;4948674;28;20086;-79
2022/03/12 01:19:47;;;;;;;23.02;9.90;;;;;;;;;;4939579;28;20047;-79
2022/03/12 01:22:17;;;;;;;20.15;10.38;;;;;;;;;;4947100;28;20143;-79
2022/03/12 01:24:43;;;;;;;21.83;9.32;;;;;;;;;;4945508;28;20118;-79
2022/03/12 01:27:08;;;;;;;18.88;9.52;;;;;;;;;;4949164;28;20039;-79
2022/03/12 01:29:34;;;;;;;20.60;10.35;;;;;;;;;;4933719;28;20148;-79
2022/03/12 01:32:00;;;;;;;20.80;9.80;;;;;;;;;;4949380;28;20057;-79
2022/03/12 01:34:26;;;;;;;20.27;9.70;;;;;;;;;;4937146;28;20410;-79
2022/03/12 01:36:51;;;;;;;24.27;10.30;;;;;;;;;;4963224;28;20051;-79
2022/03/12 01:39:18;;;;;;;19.75;9.75;;;;;;;;;;4947278;28;20067;-79
2022/03/12 01:41:44;;;;;;;20.52;9.40;;;;;;;;;;4948755;28;20270;-79
2022/03/12 01:44:13;;;;;;;21.42;10.43;;;;;;;;;;4938458;28;20079;-79
2022/03/12 01:46:45;;;;;;;18.30;9.45;;;;;;;;;;4946680;28;20047;-79
2022/03/12 01:49:16;;;;;;;18.52;9.82;;;;;;;;;;4958758;28;20055;-79
2022/03/12 01:51:44;;;;;;;17.38;9.25;;;;;;;;;;4953323;28;20590;-79
2022/03/12 01:54:10;;;;;;;16.88;9.23;;;;;;;;;;4945349;28;20520;-79
2022/03/12 01:56:38;;;;;;;18.48;10.27;;;;;;;;;;4947613;28;20039;-79
2022/03/12 01:59:03;;;;;;;22.02;10.38;;;;;;;;;;4946829;28;20047;-79
2022/03/12 02:01:30;;;;;;;22.02;10.05;;;;;;;;;;4949391;28;20568;-79
2022/03/12 02:03:57;;;;;;;22.92;10.18;;;;;;;;;;4964706;28;20246;-79
2022/03/12 02:06:24;;;;;;;20.17;9.73;;;;;;;;;;4959942;28;20519;-79
2022/03/12 02:08:53;;;;;;;20.88;9.98;;;;;;;;;;4935960;28;20268;-79
2022/03/12 02:11:29;;;;;;;21.08;10.48;;;;;;;;;;4934772;28;20046;-79
2022/03/12 02:14:08;;;;;;;23.05;10.02;;;;;;;;;;4949830;28;20056;-79
2022/03/12 02:16:35;;;;;;;19.98;9.27;;;;;;;;;;4943773;28;20146;-79
2022/03/12 02:19:01;;;;;;;18.08;9.93;;;;;;;;;;4957040;28;20432;-79
2022/03/12 02:21:34;;;;;;;22.48;10.25;;;;;;;;;;4929412;28;20405;-79
2022/03/12 02:24:01;;;;;;;24.65;10.35;;;;;;;;;;4947042;28;20492;-79
2022/03/12 02:26:27;;;;;;;22.10;10.15;;;;;;;;;;4949147;28;20049;-79
2022/03/12 02:28:52;;;;;;;20.27;9.70;;;;;;;;;;4960041;28;20039;-79
2022/03/12 02:31:19;;;;;;;17.35;9.80;;;;;;;;;;4957114;28;20043;-79
2022/03/12 02:33:46;;;;;;;19.70;10.73;;;;;;;;;;4958167;28;20088;-79
2022/03/12 02:36:20;;;;;;;22.38;10.77;;;;;;;;;;4955234;28;20046;-79
2022/03/12 02:38:49;;;;;;;21.17;10.35;;;;;;;;;;4965574;28;20035;-79
2022/03/12 02:41:15;;;;;;;19.33;11.10;;;;;;;;;;4946638;28;20086;-79
2022/03/12 02:43:45;;;;;;;20.08;10.30;;;;;;;;;;4959063;28;20091;-80
2022/03/12 02:46:13;;;;;;;22.85;10.13;;;;;;;;;;4941643;28;20369;-79
2022/03/12 02:48:39;;;;;;;23.25;10.13;;;;;;;;;;4953911;28;20042;-80
2022/03/12 02:51:06;;;;;;;21.92;11.18;;;;;;;;;;4939605;28;20134;-79
2022/03/12 02:53:32;;;;;;;21.55;10.50;;;;;;;;;;4930306;28;20039;-79
2022/03/12 02:55:58;;;;;;;25.48;11.00;;;;;;;;;;4937875;28;20043;-79
2022/03/12 02:58:24;;;;;;;26.23;10.90;;;;;;;;;;4942093;28;20063;-79
2022/03/12 03:00:49;;;;;;;22.23;10.77;;;;;;;;;;4945371;28;20043;-79
2022/03/12 03:03:15;;;;;;;22.70;10.73;;;;;;;;;;4947808;28;20059;-79
2022/03/12 03:05:47;;;;;;;21.13;9.50;;;;;;;;;;4945134;28;20031;-79
2022/03/12 03:08:21;;;;;;;19.13;9.75;;;;;;;;;;4931981;28;20066;-80
2022/03/12 03:10:50;;;;;;;24.67;10.05;;;;;;;;;;4951008;28;20043;-80
2022/03/12 03:13:20;;;;;;;21.20;9.65;;;;;;;;;;4958127;28;20077;-80
2022/03/12 03:15:53;;;;;;;21.65;10.68;;;;;;;;;;4965282;28;20385;-80
2022/03/12 03:18:21;;;;;;;21.60;11.20;;;;;;;;;;4938887;28;20055;-80
2022/03/12 03:20:47;;;;;;;21.95;9.60;;;;;;;;;;4950455;28;20497;-80
2022/03/12 03:23:13;;;;;;;20.90;10.00;;;;;;;;;;4959775;28;20121;-80
2022/03/12 03:25:39;;;;;;;20.30;9.98;;;;;;;;;;4949735;28;20039;-80
2022/03/12 03:28:06;;;;;;;19.00;10.15;;;;;;;;;;4965311;28;20047;-80
2022/03/12 03:30:34;;;;;;;19.13;10.20;;;;;;;;;;4932688;28;20050;-80
2022/03/12 03:33:00;;;;;;;18.75;9.38;;;;;;;;;;4944010;28;20045;-80
2022/03/12 03:35:26;;;;;;;18.85;9.32;;;;;;;;;;4949779;28;20094;-80
2022/03/12 03:37:52;;;;;;;20.77;9.32;;;;;;;;;;4929486;28;20043;-80
2022/03/12 03:40:18;;;;;;;18.70;8.93;;;;;;;;;;4961137;28;20051;-80
2022/03/12 03:42:43;;;;;;;21.63;9.68;;;;;;;;;;4939279;28;20556;-80
2022/03/12 03:45:09;;;;;;;22.38;9.65;;;;;;;;;;4946129;28;20416;-80
2022/03/12 03:47:35;;;;;;;20.77;9.98;;;;;;;;;;4956216;28;20043;-80
2022/03/12 03:50:01;;;;;;;20.27;9.88;;;;;;;;;;4940601;28;20031;-80
2022/03/12 03:52:27;;;;;;;22.55;9.57;;;;;;;;;;4971820;28;20047;-80
2022/03/12 03:54:53;;;;;;;20.63;9.98;;;;;;;;;;4953578;28;20043;-80
2022/03/12 03:57:19;;;;;;;21.10;9.95;;;;;;;;;;4946080;28;20476;-80
2022/03/12 03:59:44;;;;;;;25.02;11.07;;;;;;;;;;4970313;28;20042;-80
2022/03/12 04:02:10;;;;;;;18.02;9.60;;;;;;;;;;4955013;28;20408;-80
2022/03/12 04:04:36;;;;;;;22.65;9.90;;;;;;;;;;4954964;28;20042;-80
2022/03/12 04:07:03;;;;;;;16.90;9.43;;;;;;;;;;4963188;28;20047;-80
2022/03/12 04:09:29;;;;;;;22.33;10.20;;;;;;;;;;4960138;28;20042;-80
2022/03/12 04:11:55;;;;;;;21.60;9.93;;;;;;;;;;4957861;28;20047;-80
2022/03/12 04:14:25;;;;;;;19.80;10.18;;;;;;;;;;4968704;28;20119;-80
2022/03/12 04:16:51;;;;;;;24.67;10.65;;;;;;;;;;4970838;28;20468;-80
2022/03/12 04:19:18;;;;;;;19.30;9.90;;;;;;;;;;4954007;28;20551;-81
2022/03/12 04:21:45;;;;;;;17.17;9.43;;;;;;;;;;4958607;28;20105;-80
2022/03/12 04:24:11;;;;;;;23.58;10.13;;;;;;;;;;4952017;28;20055;-80
2022/03/12 04:26:37;;;;;;;20.20;9.75;;;;;;;;;;4955259;28;20043;-80
2022/03/12 04:29:08;;;;;;;17.05;9.60;;;;;;;;;;4971260;28;20042;-80
2022/03/12 04:31:34;;;;;;;21.02;11.18;;;;;;;;;;4958561;28;20078;-80
2022/03/12 04:34:00;;;;;;;20.15;10.23;;;;;;;;;;4954062;28;20043;-80
2022/03/12 04:36:26;;;;;;;20.90;9.95;;;;;;;;;;4969399;28;20218;-80
2022/03/12 04:38:52;;;;;;;21.05;10.18;;;;;;;;;;4962775;28;20047;-80
2022/03/12 04:41:19;;;;;;;25.85;10.98;;;;;;;;;;4952261;28;20640;-81
2022/03/12 04:43:49;;;;;;;22.23;10.57;;;;;;;;;;4954221;28;20043;-80
2022/03/12 04:46:14;;;;;;;22.25;11.43;;;;;;;;;;4937786;28;20233;-80
2022/03/12 04:48:40;;;;;;;24.77;11.25;;;;;;;;;;4960392;28;20522;-80
2022/03/12 04:51:06;;;;;;;22.08;11.45;;;;;;;;;;4945949;28;20054;-80
2022/03/12 04:53:32;;;;;;;23.20;10.95;;;;;;;;;;4970679;28;20109;-80
2022/03/12 04:55:58;;;;;;;24.10;10.25;;;;;;;;;;4959634;28;20417;-80
2022/03/12 04:58:24;;;;;;;21.13;10.13;;;;;;;;;;4956471;28;20043;-80
2022/03/12 05:00:50;;;;;;;21.95;11.07;;;;;;;;;;4968583;28;20244;-81
2022/03/12 05:03:20;;;;;;;20.17;10.07;;;;;;;;;;4960660;28;20415;-80
2022/03/12 05:05:48;;;;;;;23.77;11.23;;;;;;;;;;4935436;28;20039;-80
2022/03/12 05:08:20;;;;;;;24.33;9.95;;;;;;;;;;4962463;28;20071;-80
2022/03/12 05:10:50;;;;;;;22.92;11.23;;;;;;;;;;4939676;28;20047;-79
2022/03/12 05:13:22;;;;;;;22.88;9.75;;;;;;;;;;4950818;28;20509;-79
2022/03/12 05:15:49;;;;;;;21.52;10.18;;;;;;;;;;4959942;28;20051;-80
2022/03/12 05:18:15;;;;;;;24.15;9.90;;;;;;;;;;4938236;28;20046;-80
2022/03/12 05:20:46;;;;;;;25.33;12.00;;;;;;;;;;4962368;28;20050;-80
2022/03/12 05:23:13;;;;;;;22.70;10.40;;;;;;;;;;4933899;28;20591;-79
2022/03/12 05:25:43;;;;;;;21.77;10.80;;;;;;;;;;4928460;28;20043;-79
2022/03/12 05:28:15;;;;;;;21.67;10.15;;;;;;;;;;4956741;28;20043;-80
2022/03/12 05:30:41;;;;;;;19.80;10.35;;;;;;;;;;4957684;28;20108;-80
2022/03/12 05:33:06;;;;;;;22.77;11.13;;;;;;;;;;4941238;28;20051;-80
2022/03/12 05:35:34;;;;;;;20.50;10.38;;;;;;;;;;4960998;28;20431;-80
2022/03/12 05:38:00;;;;;;;23.20;10.75;;;;;;;;;;4964991;28;20054;-80
2022/03/12 05:40:26;;;;;;;19.80;10.25;;;;;;;;;;4962365;28;20074;-80
2022/03/12 05:42:55;;;;;;;21.45;10.45;;;;;;;;;;4949402;28;20085;-80
2022/03/12 05:45:22;;;;;;;25.63;11.30;;;;;;;;;;4962068;28;20089;-80
2022/03/12 05:47:49;;;;;;;22.85;10.35;;;;;;;;;;4956054;28;20687;-79
2022/03/12 05:50:15;;;;;;;23.10;10.73;;;;;;;;;;4965174;28;20456;-80
2022/03/12 05:52:46;;;;;;;22.42;11.15;;;;;;;;;;4946049;28;20043;-80
2022/03/12 05:55:12;;;;;;;22.30;10.88;;;;;;;;;;4927630;28;20052;-80
2022/03/12 05:57:38;;;;;;;25.40;11.32;;;;;;;;;;4950747;28;20484;-80
2022/03/12 06:00:05;;;;;;;28.35;13.30;;;;;;;;;;4956834;28;20054;-79
2022/03/12 06:02:31;;;;;;;30.42;13.90;;;;;;;;;;4965342;28;20110;-80
2022/03/12 06:05:00;;;;;;;37.78;19.30;;;;;;;;;;4959499;28;20408;-80
2022/03/12 06:07:27;;;;;;;52.97;23.75;;;;;;;;;;4966114;28;20062;-79
2022/03/12 06:09:54;;;;;;;43.75;21.75;;;;;;;;;;4941362;28;20097;-79
2022/03/12 06:12:20;;;;;;;27.70;15.48;;;;;;;;;;4962377;28;20034;-79
2022/03/12 06:14:52;;;;;;;30.05;14.30;;;;;;;;;;4966487;28;20042;-79
2022/03/12 06:17:19;;;;;;;26.50;12.82;;;;;;;;;;4976609;28;20039;-79
2022/03/12 06:19:45;;;;;;;25.25;11.80;;;;;;;;;;4942580;28;20039;-79
2022/03/12 06:22:13;;;;;;;29.17;12.13;;;;;;;;;;4966012;28;20129;-79
2022/03/12 06:24:40;;;;;;;22.40;11.38;;;;;;;;;;4966760;28;20041;-79
2022/03/12 06:27:06;;;;;;;21.50;10.23;;;;;;;;;;4965500;28;20038;-79
2022/03/12 06:29:32;;;;;;;20.73;10.40;;;;;;;;;;4964053;28;20045;-79
2022/03/12 06:31:59;;;;;;;23.77;11.23;;;;;;;;;;4938170;28;20133;-79
2022/03/12 06:34:26;;;;;;;20.25;10.80;;;;;;;;;;4951876;28;20558;-79
2022/03/12 06:36:51;;;;;;;21.40;11.20;;;;;;;;;;4966237;28;20122;-79
2022/03/12 06:39:17;;;;;;;25.05;11.02;;;;;;;;;;4961582;28;20066;-79
2022/03/12 06:41:45;;;;;;;20.73;11.23;;;;;;;;;;4960725;28;20114;-79
2022/03/12 06:44:12;;;;;;;25.13;11.85;;;;;;;;;;4957366;28;20051;-79
2022/03/12 06:46:38;;;;;;;22.20;11.38;;;;;;;;;;4975700;28;20054;-79
2022/03/12 06:49:04;;;;;;;22.38;10.80;;;;;;;;;;4964399;28;20043;-80
2022/03/12 06:51:31;;;;;;;20.90;11.77;;;;;;;;;;4960036;28;20074;-80
2022/03/12 06:53:56;;;;;;;21.80;11.57;;;;;;;;;;4967204;28;20031;-79
2022/03/12 06:56:22;;;;;;;20.85;11.00;;;;;;;;;;4967729;28;20130;-79
2022/03/12 06:58:48;;;;;;;22.98;11.85;;;;;;;;;;4963815;28;20039;-79
2022/03/12 07:01:13;;;;;;;23.95;11.02;;;;;;;;;;4974979;28;20101;-79
2022/03/12 07:03:39;;;;;;;21.15;10.75;;;;;;;;;;4955912;28;20137;-79
2022/03/12 07:06:06;;;;;;;20.30;11.32;;;;;;;;;;4959020;28;20053;-79
2022/03/12 07:08:32;;;;;;;22.50;11.90;;;;;;;;;;4983051;28;20576;-79
2022/03/12 07:10:59;;;;;;;19.40;10.65;;;;;;;;;;4966174;28;20448;-79
2022/03/12 07:13:25;;;;;;;18.40;10.50;;;;;;;;;;4964559;28;20050;-80
2022/03/12 07:15:50;;;;;;;19.55;10.45;;;;;;;;;;4964552;28;20035;-79
2022/03/12 07:18:19;;;;;;;20.73;10.70;;;;;;;;;;4964764;28;20485;-79
2022/03/12 07:20:46;;;;;;;20.17;10.82;;;;;;;;;;4951191;28;20456;-79
2022/03/12 07:23:12;;;;;;;23.23;11.27;;;;;;;;;;4966676;28;20459;-79
2022/03/12 07:25:38;;;;;;;22.30;10.10;;;;;;;;;;4949897;28;20051;-79
2022/03/12 07:28:05;;;;;;;18.13;9.95;;;;;;;;;;4944464;28;20066;-79
2022/03/12 07:30:31;;;;;;;15.57;9.55;;;;;;;;;;4953489;28;20442;-79
2022/03/12 07:32:57;;;;;;;23.33;10.95;;;;;;;;;;4967448;28;20118;-79
2022/03/12 07:35:26;;;;;;;20.60;11.13;;;;;;;;;;4961739;28;20035;-79
2022/03/12 07:37:53;;;;;;;18.80;10.05;;;;;;;;;;4961504;28;20043;-79
2022/03/12 07:40:19;;;;;;;21.85;10.75;;;;;;;;;;4966824;28;20039;-82
2022/03/12 07:42:45;;;;;;;19.98;10.50;;;;;;;;;;4950001;28;20035;-82
2022/03/12 07:45:15;;;;;;;18.48;10.25;;;;;;;;;;4963544;28;20077;-80
2022/03/12 07:47:41;;;;;;;20.75;10.82;;;;;;;;;;4956639;28;20045;-81
2022/03/12 07:50:10;;;;;;;22.05;10.48;;;;;;;;;;4947160;28;20075;-80
2022/03/12 07:52:36;;;;;;;25.23;11.05;;;;;;;;;;4965394;28;20062;-80
2022/03/12 07:55:03;;;;;;;23.50;10.63;;;;;;;;;;4937509;29;20106;-80
2022/03/12 07:57:29;;;;;;;18.17;9.48;;;;;;;;;;4946695;28;20091;-80
2022/03/12 07:59:57;;;;;;;19.90;11.07;;;;;;;;;;4953110;28;20603;-80
2022/03/12 08:02:23;;;;;;;19.95;10.75;;;;;;;;;;4958165;28;20423;-81
2022/03/12 08:04:49;;;;;;;19.75;10.65;;;;;;;;;;4955429;28;20364;-81
2022/03/12 08:07:15;;;;;;;19.75;10.20;;;;;;;;;;4969310;28;20351;-82
2022/03/12 08:09:40;;;;;;;19.00;10.23;;;;;;;;;;4974869;28;20050;-80
2022/03/12 08:12:07;;;;;;;22.23;10.30;;;;;;;;;;4955211;28;20474;-80
2022/03/12 08:14:34;;;;;;;18.38;9.75;;;;;;;;;;4952896;28;20054;-81
2022/03/12 08:16:59;;;;;;;17.67;9.32;;;;;;;;;;4961954;28;20130;-81
2022/03/12 08:19:25;;;;;;;18.08;9.68;;;;;;;;;;4949916;28;20610;-81
2022/03/12 08:21:52;;;;;;;16.00;9.05;;;;;;;;;;4965317;28;20050;-81
2022/03/12 08:24:18;;;;;;;17.38;9.48;;;;;;;;;;4966320;28;20039;-81
2022/03/12 08:26:46;;;;;;;16.58;8.27;;;;;;;;;;4955900;28;20051;-81
2022/03/12 08:29:13;;;;;;;16.90;9.13;;;;;;;;;;4939545;28;20509;-81
2022/03/12 08:31:39;;;;;;;12.60;7.97;;;;;;;;;;4954961;28;20046;-81
2022/03/12 08:34:05;;;;;;;16.80;9.32;;;;;;;;;;4960733;28;20046;-80
2022/03/12 08:36:31;;;;;;;15.32;8.73;;;;;;;;;;4959551;28;20509;-81
2022/03/12 08:38:57;;;;;;;15.60;9.00;;;;;;;;;;4966955;28;20047;-80
2022/03/12 08:41:22;;;;;;;15.45;8.48;;;;;;;;;;4954446;28;20109;-80
2022/03/12 08:43:49;;;;;;;15.90;9.02;;;;;;;;;;4934717;28;20529;-80
2022/03/12 08:46:15;;;;;;;16.02;9.73;;;;;;;;;;4945544;28;20123;-80
2022/03/12 08:48:40;;;;;;;13.60;8.13;;;;;;;;;;4947713;28;20062;-80
2022/03/12 08:51:07;;;;;;;15.90;8.32;;;;;;;;;;4959478;28;20082;-80
2022/03/12 08:53:36;;;;;;;14.95;8.35;;;;;;;;;;4963430;28;20073;-80
2022/03/12 08:56:03;;;;;;;10.60;7.53;;;;;;;;;;4946891;28;20043;-80
2022/03/12 08:58:30;;;;;;;16.23;8.10;;;;;;;;;;4954994;28;20049;-79
2022/03/12 09:00:57;;;;;;;13.48;7.45;;;;;;;;;;4947583;28;24837;-80
2022/03/12 09:03:24;;;;;;;14.35;7.90;;;;;;;;;;4990749;28;20389;-79
2022/03/12 09:05:51;;;;;;;14.80;7.15;;;;;;;;;;4957638;28;20070;-79
2022/03/12 09:08:19;;;;;;;13.52;7.65;;;;;;;;;;4933098;28;20043;-79
2022/03/12 09:10:45;;;;;;;12.35;6.88;;;;;;;;;;4941879;28;20038;-79
2022/03/12 09:13:13;;;;;;;14.38;7.25;;;;;;;;;;4946264;28;20042;-79
2022/03/12 09:15:39;;;;;;;11.57;7.15;;;;;;;;;;4954549;28;20121;-80
2022/03/12 09:18:07;;;;;;;9.75;6.63;;;;;;;;;;4932878;28;20043;-79
2022/03/12 09:20:42;;;;;;;11.85;7.05;;;;;;;;;;4965938;28;20053;-79
2022/03/12 09:23:08;;;;;;;14.15;6.50;;;;;;;;;;4956369;28;20042;-79
2022/03/12 09:25:34;;;;;;;13.68;6.80;;;;;;;;;;4942344;28;20065;-78
2022/03/12 09:27:59;;;;;;;11.57;6.93;;;;;;;;;;4957756;28;20122;-79
2022/03/12 09:30:26;;;;;;;11.80;6.82;;;;;;;;;;4964485;28;20038;-79
2022/03/12 09:32:54;;;;;;;10.68;6.72;;;;;;;;;;4963228;28;20051;-79
2022/03/12 09:35:20;;;;;;;13.50;7.00;;;;;;;;;;4948398;28;20347;-79
2022/03/12 09:37:49;;;;;;;11.48;6.28;;;;;;;;;;4961827;28;20094;-79
2022/03/12 09:40:19;;;;;;;12.52;6.93;;;;;;;;;;4964711;28;20579;-79
2022/03/12 09:42:47;;;;;;;11.43;6.70;;;;;;;;;;4961331;28;20047;-79
2022/03/12 09:45:14;;;;;;;11.98;6.85;;;;;;;;;;4957205;28;20043;-79
2022/03/12 09:47:42;;;;;;;10.65;6.03;;;;;;;;;;4936786;28;20050;-79
2022/03/12 09:50:08;;;;;;;11.40;7.13;;;;;;;;;;4953193;28;20166;-79
2022/03/12 09:52:34;;;;;;;11.00;6.13;;;;;;;;;;4961513;28;20038;-79
2022/03/12 09:55:00;;;;;;;9.82;6.28;;;;;;;;;;4956174;28;20580;-79
2022/03/12 09:57:30;;;;;;;9.52;6.22;;;;;;;;;;4950477;28;20133;-79
2022/03/12 09:59:56;;;;;;;8.82;6.72;;;;;;;;;;4959477;28;20043;-79
2022/03/12 10:02:22;;;;;;;13.60;6.75;;;;;;;;;;4942664;28;20051;-79
2022/03/12 10:04:48;;;;;;;11.45;5.85;;;;;;;;;;4960386;28;20412;-79
2022/03/12 10:07:14;;;;;;;9.65;5.72;;;;;;;;;;4943393;28;20063;-79
2022/03/12 10:09:41;;;;;;;8.32;5.85;;;;;;;;;;4963145;28;20043;-79
2022/03/12 10:12:07;;;;;;;10.93;6.22;;;;;;;;;;4934212;28;20121;-79
2022/03/12 10:14:33;;;;;;;10.90;5.78;;;;;;;;;;4954731;28;20039;-81
2022/03/12 10:17:03;;;;;;;9.80;5.57;;;;;;;;;;4961946;28;20049;-79
2022/03/12 10:19:33;;;;;;;9.80;6.25;;;;;;;;;;4958574;28;20524;-80
2022/03/12 10:21:59;;;;;;;7.72;5.65;;;;;;;;;;4946601;28;20460;-79
2022/03/12 10:24:24;;;;;;;7.47;5.22;;;;;;;;;;4949097;28;20043;-79
2022/03/12 10:26:53;;;;;;;9.65;5.50;;;;;;;;;;4957097;28;20039;-77
2022/03/12 10:29:19;;;;;;;7.80;6.10;;;;;;;;;;4955953;28;20065;-77
2022/03/12 10:31:45;;;;;;;8.65;5.82;;;;;;;;;;4960879;28;20516;-78
2022/03/12 10:34:21;;;;;;;7.05;5.43;;;;;;;;;;4954554;28;20116;-77
2022/03/12 10:36:48;;;;;;;8.27;5.90;;;;;;;;;;4948783;28;20078;-78
2022/03/12 10:39:14;;;;;;;11.80;7.00;;;;;;;;;;4954311;28;20041;-78
2022/03/12 10:41:41;;;;;;;6.13;5.32;;;;;;;;;;4945618;28;20134;-78
2022/03/12 10:44:06;;;;;;;7.07;4.78;;;;;;;;;;4941957;28;20595;-78
2022/03/12 10:46:35;;;;;;;6.18;5.40;;;;;;;;;;4946495;28;20078;-78
2022/03/12 10:49:08;;;;;;;6.88;5.57;;;;;;;;;;4942460;28;20130;-78
2022/03/12 10:51:41;;;;;;;11.45;6.57;;;;;;;;;;4984292;28;20045;-78
2022/03/12 10:54:10;;;;;;;8.40;5.82;;;;;;;;;;4959062;28;20516;-79
2022/03/12 10:56:46;;;;;;;8.07;6.38;;;;;;;;;;4959557;28;20198;-79
2022/03/12 10:59:19;;;;;;;8.38;6.13;;;;;;;;;;4941298;28;20055;-78
2022/03/12 11:01:56;;;;;;;6.97;5.57;;;;;;;;;;4947143;28;20075;-79
2022/03/12 11:04:30;;;;;;;6.90;6.20;;;;;;;;;;4958630;28;20030;-80
2022/03/12 11:06:59;;;;;;;7.15;6.03;;;;;;;;;;4930616;28;20121;-79
2022/03/12 11:09:37;;;;;;;6.60;5.65;;;;;;;;;;4946789;28;20340;-78
2022/03/12 11:12:04;;;;;;;6.68;5.88;;;;;;;;;;4945771;28;20068;-78
2022/03/12 11:14:31;;;;;;;7.18;5.70;;;;;;;;;;4951122;28;20039;-78
2022/03/12 11:16:58;;;;;;;7.65;5.82;;;;;;;;;;4950962;28;20564;-78
2022/03/12 11:19:41;;;;;;;7.63;6.10;;;;;;;;;;4935606;28;20042;-77
2022/03/12 11:22:14;;;;;;;8.13;6.18;;;;;;;;;;4933717;28;20054;-78
2022/03/12 11:24:52;;;;;;;7.95;6.03;;;;;;;;;;4948351;28;20493;-78
2022/03/12 11:27:28;;;;;;;6.95;5.78;;;;;;;;;;4946397;28;20031;-78
2022/03/12 11:30:08;;;;;;;7.45;5.72;;;;;;;;;;4945340;28;20090;-78
2022/03/12 11:32:42;;;;;;;8.55;5.32;;;;;;;;;;4953775;28;20043;-78
2022/03/12 11:35:15;;;;;;;9.10;5.85;;;;;;;;;;4940754;28;20047;-78
2022/03/12 11:37:42;;;;;;;10.27;6.85;;;;;;;;;;4945697;28;20164;-78
2022/03/12 11:40:11;;;;;;;6.55;5.85;;;;;;;;;;4946649;28;20043;-78
2022/03/12 11:42:39;;;;;;;7.60;5.80;;;;;;;;;;4957584;28;20035;-79
2022/03/12 11:45:18;;;;;;;7.20;5.70;;;;;;;;;;4948868;28;20050;-78
2022/03/12 11:47:46;;;;;;;6.03;5.30;;;;;;;;;;4957827;28;20046;-78
2022/03/12 11:50:18;;;;;;;6.93;5.78;;;;;;;;;;4969094;28;20054;-78
2022/03/12 11:52:45;;;;;;;7.18;5.95;;;;;;;;;;4960512;28;20054;-78
2022/03/12 11:55:17;;;;;;;7.55;5.80;;;;;;;;;;4959336;28;20560;-78
2022/03/12 11:57:45;;;;;;;7.18;6.18;;;;;;;;;;4950903;28;20057;-78
2022/03/12 12:00:22;;;;;;;6.85;6.00;;;;;;;;;;4959604;28;20190;-79
2022/03/12 12:02:48;;;;;;;8.63;5.45;;;;;;;;;;4946526;28;20085;-78
2022/03/12 12:05:16;;;;;;;7.85;5.80;;;;;;;;;;4942897;28;20400;-78
2022/03/12 12:07:47;;;;;;;8.27;5.85;;;;;;;;;;4954912;28;20493;-79
2022/03/12 12:10:17;;;;;;;6.72;5.60;;;;;;;;;;4937079;28;20051;-78
2022/03/12 12:12:45;;;;;;;7.50;5.38;;;;;;;;;;4957372;28;20043;-79
2022/03/12 12:15:14;;;;;;;6.50;5.57;;;;;;;;;;4944478;28;20031;-78
2022/03/12 12:17:41;;;;;;;8.25;5.53;;;;;;;;;;4945887;28;20043;-78
2022/03/12 12:20:07;;;;;;;6.80;4.95;;;;;;;;;;4942098;28;20051;-78
2022/03/12 12:22:33;;;;;;;9.73;4.93;;;;;;;;;;4950715;28;20043;-77
2022/03/12 12:25:04;;;;;;;7.60;4.80;;;;;;;;;;4961035;28;20054;-77
2022/03/12 12:27:42;;;;;;;6.97;4.93;;;;;;;;;;4945081;28;20461;-77
2022/03/12 12:30:11;;;;;;;6.20;4.35;;;;;;;;;;4961469;28;20058;-77
2022/03/12 12:32:50;;;;;;;6.65;4.18;;;;;;;;;;4977927;28;20054;-80
2022/03/12 12:35:18;;;;;;;5.10;3.47;;;;;;;;;;4959290;28;20174;-77
2022/03/12 12:37:59;;;;;;;5.53;3.83;;;;;;;;;;4953116;28;20047;-77
2022/03/12 12:40:47;;;;;;;4.30;3.60;;;;;;;;;;4961229;28;20428;-77
2022/03/12 12:43:18;;;;;;;4.65;3.53;;;;;;;;;;4921848;28;20039;-77
2022/03/12 12:46:04;;;;;;;6.30;4.00;;;;;;;;;;4958402;28;20107;-76
2022/03/12 12:48:43;;;;;;;4.00;3.60;;;;;;;;;;4958113;28;20504;-77
2022/03/12 12:51:16;;;;;;;6.10;3.53;;;;;;;;;;4944591;28;20051;-77
2022/03/12 12:53:43;;;;;;;4.28;3.33;;;;;;;;;;4954060;28;20043;-77
2022/03/12 12:56:36;;;;;;;5.65;3.58;;;;;;;;;;4940661;28;20481;-77
2022/03/12 12:59:01;;;;;;;6.38;3.90;;;;;;;;;;4947524;28;20571;-77
2022/03/12 13:01:35;;;;;;;5.75;3.72;;;;;;;;;;4944680;28;20067;-77
2022/03/12 13:04:03;;;;;;;7.90;3.80;;;;;;;;;;4962524;28;20742;-77
2022/03/12 13:06:48;;;;;;;5.65;3.88;;;;;;;;;;4946214;28;20561;-77
2022/03/12 13:09:38;;;;;;;4.43;3.40;;;;;;;;;;4963021;28;20101;-77
2022/03/12 13:12:09;;;;;;;5.88;3.80;;;;;;;;;;4995553;28;20043;-77
2022/03/12 13:14:42;;;;;;;5.97;3.97;;;;;;;;;;4953094;28;20110;-77
2022/03/12 13:17:10;;;;;;;5.03;3.70;;;;;;;;;;4972628;28;20047;-77
2022/03/12 13:19:36;;;;;;;5.13;3.83;;;;;;;;;;4956135;28;20037;-77
2022/03/12 13:22:07;;;;;;;5.40;3.53;;;;;;;;;;4970149;28;20070;-77
2022/03/12 13:24:43;;;;;;;5.93;3.92;;;;;;;;;;4944083;28;20042;-77
2022/03/12 13:27:17;;;;;;;4.70;3.53;;;;;;;;;;4974184;28;20054;-77
2022/03/12 13:29:42;;;;;;;6.18;3.67;;;;;;;;;;4952510;28;20047;-77
2022/03/12 13:32:26;;;;;;;4.35;3.65;;;;;;;;;;4954718;28;20539;-77
2022/03/12 13:34:52;;;;;;;4.28;3.28;;;;;;;;;;4945716;28;20045;-78
2022/03/12 13:37:18;;;;;;;5.35;3.70;;;;;;;;;;4942476;28;20520;-77
2022/03/12 13:39:44;;;;;;;4.07;3.65;;;;;;;;;;4942431;28;20047;-77
2022/03/12 13:42:12;;;;;;;4.90;3.75;;;;;;;;;;4926633;28;20047;-77
2022/03/12 13:44:37;;;;;;;5.78;3.40;;;;;;;;;;4957671;28;20444;-77
2022/03/12 13:47:05;;;;;;;5.32;3.55;;;;;;;;;;4964133;28;20093;-77
2022/03/12 13:49:32;;;;;;;6.22;3.60;;;;;;;;;;4954012;28;20049;-77
2022/03/12 13:51:57;;;;;;;5.90;4.03;;;;;;;;;;4962770;28;20050;-77
2022/03/12 13:54:25;;;;;;;5.53;3.67;;;;;;;;;;4957573;28;20332;-79
2022/03/12 13:56:52;;;;;;;5.05;3.90;;;;;;;;;;4946070;28;20053;-77
2022/03/12 13:59:23;;;;;;;4.93;3.42;;;;;;;;;;4946007;28;20075;-76
2022/03/12 14:01:49;;;;;;;4.65;3.53;;;;;;;;;;4946554;28;20404;-77
2022/03/12 14:04:34;;;;;;;7.30;3.95;;;;;;;;;;4946332;28;20034;-76
2022/03/12 14:07:13;;;;;;;4.97;3.53;;;;;;;;;;4958977;28;20528;-77
2022/03/12 14:09:38;;;;;;;5.60;3.72;;;;;;;;;;4934032;28;20056;-76
2022/03/12 14:12:05;;;;;;;3.88;3.17;;;;;;;;;;4949079;28;20051;-76
2022/03/12 14:14:31;;;;;;;4.78;3.72;;;;;;;;;;4940356;28;20043;-76
2022/03/12 14:17:02;;;;;;;6.07;3.95;;;;;;;;;;4947672;28;20047;-76
2022/03/12 14:19:29;;;;;;;6.78;3.65;;;;;;;;;;4958149;28;20053;-76
2022/03/12 14:21:57;;;;;;;6.60;3.78;;;;;;;;;;4960861;28;20492;-76
2022/03/12 14:24:28;;;;;;;5.82;4.15;;;;;;;;;;4944346;28;20456;-76
2022/03/12 14:26:59;;;;;;;7.07;4.20;;;;;;;;;;4934719;28;20062;-76
2022/03/12 14:29:28;;;;;;;5.93;4.07;;;;;;;;;;4974760;28;20043;-76
2022/03/12 14:31:56;;;;;;;4.75;4.10;;;;;;;;;;4959869;28;20071;-76
2022/03/12 14:34:23;;;;;;;6.60;4.30;;;;;;;;;;4930316;28;20880;-76